sensor_id;sensor_type;location;lat;lon;timestamp;temperature;humidity
67279;DHT22;54193;53.746;10.058;2023-04-01T00:01:58;9.71;94.29
67279;DHT22;54193;53.746;10.058;2023-04-01T00:04:44;9.72;94.28
67279;DHT22;54193;53.746;10.058;2023-04-01T00:07:29;9.71;94.31
67279;DHT22;54193;53.746;10.058;2023-04-01T00:10:16;9.72;94.29
67279;DHT22;54193;53.746;10.058;2023-04-01T00:13:02;9.69;94.30
67279;DHT22;54193;53.746;10.058;2023-04-01T00:15:48;9.71;94.31
67279;DHT22;54193;53.746;10.058;2023-04-01T00:18:34;9.71;94.14
67279;DHT22;54193;53.746;10.058;2023-04-01T00:21:21;9.71;94.11
67279;DHT22;54193;53.746;10.058;2023-04-01T00:24:07;9.74;94.11
67279;DHT22;54193;53.746;10.058;2023-04-01T00:26:53;9.71;94.08
67279;DHT22;54193;53.746;10.058;2023-04-01T00:29:42;9.72;94.02
67279;DHT22;54193;53.746;10.058;2023-04-01T00:32:27;9.72;94.02
67279;DHT22;54193;53.746;10.058;2023-04-01T00:35:14;9.71;94.06
67279;DHT22;54193;53.746;10.058;2023-04-01T00:38:00;9.67;94.09
67279;DHT22;54193;53.746;10.058;2023-04-01T00:40:46;9.67;94.12
67279;DHT22;54193;53.746;10.058;2023-04-01T00:43:32;9.67;94.12
67279;DHT22;54193;53.746;10.058;2023-04-01T00:46:18;9.65;94.14
67279;DHT22;54193;53.746;10.058;2023-04-01T00:49:05;9.63;94.15
67279;DHT22;54193;53.746;10.058;2023-04-01T00:51:53;9.63;94.22
67279;DHT22;54193;53.746;10.058;2023-04-01T00:54:41;9.67;94.20
67279;DHT22;54193;53.746;10.058;2023-04-01T00:57:31;9.67;94.27
67279;DHT22;54193;53.746;10.058;2023-04-01T01:00:20;9.63;94.29
67279;DHT22;54193;53.746;10.058;2023-04-01T01:03:06;9.63;94.26
67279;DHT22;54193;53.746;10.058;2023-04-01T01:09:18;9.63;94.25
67279;DHT22;54193;53.746;10.058;2023-04-01T01:12:20;9.62;94.24
67279;DHT22;54193;53.746;10.058;2023-04-01T01:15:34;9.61;94.34
67279;DHT22;54193;53.746;10.058;2023-04-01T01:21:38;9.62;94.36
67279;DHT22;54193;53.746;10.058;2023-04-01T01:24:44;9.61;94.31
67279;DHT22;54193;53.746;10.058;2023-04-01T01:27:39;9.59;94.30
67279;DHT22;54193;53.746;10.058;2023-04-01T01:30:39;9.59;94.29
67279;DHT22;54193;53.746;10.058;2023-04-01T01:33:56;9.58;94.32
67279;DHT22;54193;53.746;10.058;2023-04-01T01:36:50;9.58;94.38
67279;DHT22;54193;53.746;10.058;2023-04-01T01:39:39;9.59;94.32
67279;DHT22;54193;53.746;10.058;2023-04-01T01:42:28;9.57;94.35
67279;DHT22;54193;53.746;10.058;2023-04-01T01:45:19;9.57;94.38
67279;DHT22;54193;53.746;10.058;2023-04-01T01:48:06;9.58;94.39
67279;DHT22;54193;53.746;10.058;2023-04-01T01:50:54;9.55;94.46
67279;DHT22;54193;53.746;10.058;2023-04-01T01:53:40;9.54;94.42
67279;DHT22;54193;53.746;10.058;2023-04-01T01:56:27;9.51;94.47
67279;DHT22;54193;53.746;10.058;2023-04-01T01:59:16;9.55;94.44
67279;DHT22;54193;53.746;10.058;2023-04-01T02:02:03;9.52;94.47
67279;DHT22;54193;53.746;10.058;2023-04-01T02:04:53;9.51;94.51
67279;DHT22;54193;53.746;10.058;2023-04-01T02:07:40;9.50;94.54
67279;DHT22;54193;53.746;10.058;2023-04-01T02:10:31;9.51;94.56
67279;DHT22;54193;53.746;10.058;2023-04-01T02:13:31;9.50;94.58
67279;DHT22;54193;53.746;10.058;2023-04-01T02:16:24;9.51;94.58
67279;DHT22;54193;53.746;10.058;2023-04-01T02:19:13;9.50;94.61
67279;DHT22;54193;53.746;10.058;2023-04-01T02:22:01;9.50;94.65
67279;DHT22;54193;53.746;10.058;2023-04-01T02:24:53;9.50;94.64
67279;DHT22;54193;53.746;10.058;2023-04-01T02:27:41;9.47;94.65
67279;DHT22;54193;53.746;10.058;2023-04-01T02:30:29;9.48;94.68
67279;DHT22;54193;53.746;10.058;2023-04-01T02:33:16;9.47;94.72
67279;DHT22;54193;53.746;10.058;2023-04-01T02:36:02;9.42;94.68
67279;DHT22;54193;53.746;10.058;2023-04-01T02:38:49;9.40;94.70
67279;DHT22;54193;53.746;10.058;2023-04-01T02:41:41;9.44;94.78
67279;DHT22;54193;53.746;10.058;2023-04-01T02:44:27;9.41;94.72
67279;DHT22;54193;53.746;10.058;2023-04-01T02:47:12;9.40;94.79
67279;DHT22;54193;53.746;10.058;2023-04-01T02:49:58;9.41;94.79
67279;DHT22;54193;53.746;10.058;2023-04-01T02:52:44;9.40;94.86
67279;DHT22;54193;53.746;10.058;2023-04-01T02:55:29;9.41;94.85
67279;DHT22;54193;53.746;10.058;2023-04-01T02:58:16;9.41;94.88
67279;DHT22;54193;53.746;10.058;2023-04-01T03:01:02;9.42;94.89
67279;DHT22;54193;53.746;10.058;2023-04-01T03:03:48;9.40;94.94
67279;DHT22;54193;53.746;10.058;2023-04-01T03:06:33;9.37;94.94
67279;DHT22;54193;53.746;10.058;2023-04-01T03:09:19;9.37;94.95
67279;DHT22;54193;53.746;10.058;2023-04-01T03:12:05;9.37;95.01
67279;DHT22;54193;53.746;10.058;2023-04-01T03:14:51;9.37;95.06
67279;DHT22;54193;53.746;10.058;2023-04-01T03:17:38;9.34;95.07
67279;DHT22;54193;53.746;10.058;2023-04-01T03:20:23;9.37;95.03
67279;DHT22;54193;53.746;10.058;2023-04-01T03:23:09;9.38;95.09
67279;DHT22;54193;53.746;10.058;2023-04-01T03:25:54;9.42;95.11
67279;DHT22;54193;53.746;10.058;2023-04-01T03:28:40;9.41;95.08
67279;DHT22;54193;53.746;10.058;2023-04-01T03:31:26;9.40;95.10
67279;DHT22;54193;53.746;10.058;2023-04-01T03:34:12;9.17;94.84
67279;DHT22;54193;53.746;10.058;2023-04-01T03:36:57;8.59;94.43
67279;DHT22;54193;53.746;10.058;2023-04-01T03:39:43;8.48;94.71
67279;DHT22;54193;53.746;10.058;2023-04-01T03:42:30;8.40;94.86
67279;DHT22;54193;53.746;10.058;2023-04-01T03:45:16;8.40;94.81
67279;DHT22;54193;53.746;10.058;2023-04-01T03:48:02;8.24;94.75
67279;DHT22;54193;53.746;10.058;2023-04-01T03:50:48;8.16;94.81
67279;DHT22;54193;53.746;10.058;2023-04-01T03:53:34;8.13;94.84
67279;DHT22;54193;53.746;10.058;2023-04-01T03:56:19;8.02;94.77
67279;DHT22;54193;53.746;10.058;2023-04-01T03:59:07;8.02;94.89
67279;DHT22;54193;53.746;10.058;2023-04-01T04:01:53;7.94;94.80
67279;DHT22;54193;53.746;10.058;2023-04-01T04:04:38;7.81;94.76
67279;DHT22;54193;53.746;10.058;2023-04-01T04:07:24;7.73;94.79
67279;DHT22;54193;53.746;10.058;2023-04-01T04:10:09;7.64;94.62
67279;DHT22;54193;53.746;10.058;2023-04-01T04:12:55;7.64;94.70
67279;DHT22;54193;53.746;10.058;2023-04-01T04:15:41;7.58;94.71
67279;DHT22;54193;53.746;10.058;2023-04-01T04:18:27;7.52;94.80
67279;DHT22;54193;53.746;10.058;2023-04-01T04:21:14;7.45;94.68
67279;DHT22;54193;53.746;10.058;2023-04-01T04:24:00;7.35;94.67
67279;DHT22;54193;53.746;10.058;2023-04-01T04:26:46;7.38;94.76
67279;DHT22;54193;53.746;10.058;2023-04-01T04:29:32;7.30;94.77
67279;DHT22;54193;53.746;10.058;2023-04-01T04:32:17;7.17;94.71
67279;DHT22;54193;53.746;10.058;2023-04-01T04:35:03;7.11;94.78
67279;DHT22;54193;53.746;10.058;2023-04-01T04:37:49;7.06;94.76
67279;DHT22;54193;53.746;10.058;2023-04-01T04:40:39;6.97;94.74
67279;DHT22;54193;53.746;10.058;2023-04-01T04:43:25;6.92;94.71
67279;DHT22;54193;53.746;10.058;2023-04-01T04:46:11;6.89;94.80
67279;DHT22;54193;53.746;10.058;2023-04-01T04:48:57;6.88;94.74
67279;DHT22;54193;53.746;10.058;2023-04-01T04:51:42;6.82;94.75
67279;DHT22;54193;53.746;10.058;2023-04-01T04:54:29;6.83;94.91
67279;DHT22;54193;53.746;10.058;2023-04-01T04:57:14;6.80;94.81
67279;DHT22;54193;53.746;10.058;2023-04-01T05:00:00;6.73;94.79
67279;DHT22;54193;53.746;10.058;2023-04-01T05:02:46;6.67;94.77
67279;DHT22;54193;53.746;10.058;2023-04-01T05:05:31;6.65;94.77
67279;DHT22;54193;53.746;10.058;2023-04-01T05:08:17;6.67;94.81
67279;DHT22;54193;53.746;10.058;2023-04-01T05:11:03;6.61;94.84
67279;DHT22;54193;53.746;10.058;2023-04-01T05:13:49;6.62;94.83
67279;DHT22;54193;53.746;10.058;2023-04-01T05:16:35;6.59;94.79
67279;DHT22;54193;53.746;10.058;2023-04-01T05:19:21;6.59;94.77
67279;DHT22;54193;53.746;10.058;2023-04-01T05:22:07;6.53;94.67
67279;DHT22;54193;53.746;10.058;2023-04-01T05:24:52;6.53;94.70
67279;DHT22;54193;53.746;10.058;2023-04-01T05:27:38;6.53;94.79
67279;DHT22;54193;53.746;10.058;2023-04-01T05:30:24;6.53;94.70
67279;DHT22;54193;53.746;10.058;2023-04-01T05:33:10;6.42;94.38
67279;DHT22;54193;53.746;10.058;2023-04-01T05:36:05;6.48;94.50
67279;DHT22;54193;53.746;10.058;2023-04-01T05:38:54;6.38;94.38
67279;DHT22;54193;53.746;10.058;2023-04-01T05:41:40;6.34;94.30
67279;DHT22;54193;53.746;10.058;2023-04-01T05:44:26;6.31;94.11
67279;DHT22;54193;53.746;10.058;2023-04-01T05:47:12;6.30;94.22
67279;DHT22;54193;53.746;10.058;2023-04-01T05:49:57;6.27;94.12
67279;DHT22;54193;53.746;10.058;2023-04-01T05:52:43;6.25;94.27
67279;DHT22;54193;53.746;10.058;2023-04-01T05:55:30;6.28;94.30
67279;DHT22;54193;53.746;10.058;2023-04-01T05:58:16;6.25;94.13
67279;DHT22;54193;53.746;10.058;2023-04-01T06:01:11;6.24;94.07
67279;DHT22;54193;53.746;10.058;2023-04-01T06:03:56;6.17;93.78
67279;DHT22;54193;53.746;10.058;2023-04-01T06:06:43;6.10;93.91
67279;DHT22;54193;53.746;10.058;2023-04-01T06:09:29;6.06;93.98
67279;DHT22;54193;53.746;10.058;2023-04-01T06:12:35;6.06;93.88
67279;DHT22;54193;53.746;10.058;2023-04-01T06:31:07;6.02;93.57
67279;DHT22;54193;53.746;10.058;2023-04-01T06:40:17;6.02;93.93
67279;DHT22;54193;53.746;10.058;2023-04-01T06:58:19;5.67;93.39
67279;DHT22;54193;53.746;10.058;2023-04-01T07:01:09;5.72;93.65
67279;DHT22;54193;53.746;10.058;2023-04-01T07:04:03;5.66;93.36
67279;DHT22;54193;53.746;10.058;2023-04-01T07:07:02;5.73;93.44
67279;DHT22;54193;53.746;10.058;2023-04-01T07:09:53;5.76;93.47
67279;DHT22;54193;53.746;10.058;2023-04-01T07:12:54;5.70;93.29
67279;DHT22;54193;53.746;10.058;2023-04-01T07:15:54;5.69;93.23
67279;DHT22;54193;53.746;10.058;2023-04-01T07:18:51;5.72;93.46
67279;DHT22;54193;53.746;10.058;2023-04-01T07:21:49;5.73;93.69
67279;DHT22;54193;53.746;10.058;2023-04-01T07:24:39;5.82;93.78
67279;DHT22;54193;53.746;10.058;2023-04-01T07:27:25;5.70;93.71
67279;DHT22;54193;53.746;10.058;2023-04-01T07:30:23;5.62;93.56
67279;DHT22;54193;53.746;10.058;2023-04-01T07:33:24;5.58;93.40
67279;DHT22;54193;53.746;10.058;2023-04-01T07:54:49;5.62;93.25
67279;DHT22;54193;53.746;10.058;2023-04-01T08:00:42;5.58;93.26
67279;DHT22;54193;53.746;10.058;2023-04-01T08:03:46;5.56;93.49
67279;DHT22;54193;53.746;10.058;2023-04-01T08:10:04;5.58;93.15
67279;DHT22;54193;53.746;10.058;2023-04-01T08:13:01;5.65;93.37
67279;DHT22;54193;53.746;10.058;2023-04-01T08:21:52;5.56;93.07
67279;DHT22;54193;53.746;10.058;2023-04-01T08:24:45;5.62;93.46
67279;DHT22;54193;53.746;10.058;2023-04-01T08:27:41;5.66;93.07
67279;DHT22;54193;53.746;10.058;2023-04-01T08:30:40;5.67;93.18
67279;DHT22;54193;53.746;10.058;2023-04-01T08:33:28;5.59;93.11
67279;DHT22;54193;53.746;10.058;2023-04-01T08:36:33;5.62;93.35
67279;DHT22;54193;53.746;10.058;2023-04-01T08:39:43;5.62;93.41
67279;DHT22;54193;53.746;10.058;2023-04-01T08:49:10;5.62;93.56
67279;DHT22;54193;53.746;10.058;2023-04-01T09:00:50;5.72;92.82
67279;DHT22;54193;53.746;10.058;2023-04-01T09:03:58;5.86;93.00
67279;DHT22;54193;53.746;10.058;2023-04-01T09:07:12;5.86;92.77
67279;DHT22;54193;53.746;10.058;2023-04-01T09:10:10;5.82;92.95
67279;DHT22;54193;53.746;10.058;2023-04-01T09:31:38;5.90;92.58
67279;DHT22;54193;53.746;10.058;2023-04-01T09:34:52;5.99;92.74
67279;DHT22;54193;53.746;10.058;2023-04-01T09:37:51;6.10;93.01
67279;DHT22;54193;53.746;10.058;2023-04-01T09:40:57;5.92;92.66
67279;DHT22;54193;53.746;10.058;2023-04-01T09:44:00;6.02;92.94
67279;DHT22;54193;53.746;10.058;2023-04-01T09:47:02;5.89;92.80
67279;DHT22;54193;53.746;10.058;2023-04-01T09:53:19;5.87;92.70
67279;DHT22;54193;53.746;10.058;2023-04-01T09:56:23;5.82;92.50
67279;DHT22;54193;53.746;10.058;2023-04-01T09:59:38;5.90;92.56
67279;DHT22;54193;53.746;10.058;2023-04-01T10:06:17;6.23;92.51
67279;DHT22;54193;53.746;10.058;2023-04-01T10:24:41;6.16;92.33
67279;DHT22;54193;53.746;10.058;2023-04-01T10:37:29;6.11;92.13
67279;DHT22;54193;53.746;10.058;2023-04-01T11:08:44;5.96;91.29
67279;DHT22;54193;53.746;10.058;2023-04-01T11:11:47;6.02;91.24
67279;DHT22;54193;53.746;10.058;2023-04-01T11:15:02;5.97;91.71
67279;DHT22;54193;53.746;10.058;2023-04-01T11:27:37;5.69;92.08
67279;DHT22;54193;53.746;10.058;2023-04-01T11:36:23;5.67;92.20
67279;DHT22;54193;53.746;10.058;2023-04-01T11:42:32;5.58;91.75
67279;DHT22;54193;53.746;10.058;2023-04-01T11:45:38;5.47;91.73
67279;DHT22;54193;53.746;10.058;2023-04-01T12:05:14;5.49;91.40
67279;DHT22;54193;53.746;10.058;2023-04-01T12:11:25;5.45;91.20
67279;DHT22;54193;53.746;10.058;2023-04-01T12:14:32;5.52;91.01
67279;DHT22;54193;53.746;10.058;2023-04-01T12:24:12;5.58;90.27
67279;DHT22;54193;53.746;10.058;2023-04-01T12:27:20;5.62;90.31
67279;DHT22;54193;53.746;10.058;2023-04-01T12:30:30;5.48;90.70
67279;DHT22;54193;53.746;10.058;2023-04-01T12:42:21;5.37;91.45
67279;DHT22;54193;53.746;10.058;2023-04-01T12:45:34;5.34;90.96
67279;DHT22;54193;53.746;10.058;2023-04-01T12:51:35;5.41;90.56
67279;DHT22;54193;53.746;10.058;2023-04-01T12:55:33;5.52;90.34
67279;DHT22;54193;53.746;10.058;2023-04-01T13:00:49;5.69;90.22
67279;DHT22;54193;53.746;10.058;2023-04-01T13:07:52;5.26;90.72
67279;DHT22;54193;53.746;10.058;2023-04-01T13:11:00;5.28;90.94
67279;DHT22;54193;53.746;10.058;2023-04-01T13:23:35;5.06;91.09
67279;DHT22;54193;53.746;10.058;2023-04-01T13:32:22;5.11;90.76
67279;DHT22;54193;53.746;10.058;2023-04-01T13:41:12;5.10;90.37
67279;DHT22;54193;53.746;10.058;2023-04-01T13:44:09;5.09;90.45
67279;DHT22;54193;53.746;10.058;2023-04-01T13:47:05;4.99;90.68
67279;DHT22;54193;53.746;10.058;2023-04-01T13:50:05;5.00;90.52
67279;DHT22;54193;53.746;10.058;2023-04-01T13:56:12;5.17;91.09
67279;DHT22;54193;53.746;10.058;2023-04-01T14:05:35;5.06;90.10
67279;DHT22;54193;53.746;10.058;2023-04-01T14:21:23;5.03;90.70
67279;DHT22;54193;53.746;10.058;2023-04-01T14:27:48;5.03;91.00
67279;DHT22;54193;53.746;10.058;2023-04-01T14:31:00;5.03;90.98
67279;DHT22;54193;53.746;10.058;2023-04-01T14:45:55;4.72;91.04
67279;DHT22;54193;53.746;10.058;2023-04-01T14:52:32;4.75;91.38
67279;DHT22;54193;53.746;10.058;2023-04-01T14:56:06;4.65;90.59
67279;DHT22;54193;53.746;10.058;2023-04-01T14:58:46;4.72;91.14
67279;DHT22;54193;53.746;10.058;2023-04-01T15:01:50;4.59;90.06
67279;DHT22;54193;53.746;10.058;2023-04-01T15:05:08;4.56;90.51
67279;DHT22;54193;53.746;10.058;2023-04-01T15:11:45;4.56;90.45
67279;DHT22;54193;53.746;10.058;2023-04-01T15:14:21;4.61;90.35
67279;DHT22;54193;53.746;10.058;2023-04-01T15:17:48;4.65;90.29
67279;DHT22;54193;53.746;10.058;2023-04-01T15:20:56;4.61;90.24
67279;DHT22;54193;53.746;10.058;2023-04-01T15:27:11;4.63;90.23
67279;DHT22;54193;53.746;10.058;2023-04-01T15:30:38;4.62;90.42
67279;DHT22;54193;53.746;10.058;2023-04-01T15:33:43;4.63;90.37
67279;DHT22;54193;53.746;10.058;2023-04-01T15:42:46;4.51;90.03
67279;DHT22;54193;53.746;10.058;2023-04-01T15:49:03;4.48;90.23
67279;DHT22;54193;53.746;10.058;2023-04-01T15:52:00;4.44;90.28
67279;DHT22;54193;53.746;10.058;2023-04-01T16:01:34;4.48;90.37
67279;DHT22;54193;53.746;10.058;2023-04-01T16:16:25;4.27;89.97
67279;DHT22;54193;53.746;10.058;2023-04-01T16:19:41;4.27;90.10
67279;DHT22;54193;53.746;10.058;2023-04-01T16:22:55;4.25;90.03
67279;DHT22;54193;53.746;10.058;2023-04-01T16:25:55;4.31;90.06
67279;DHT22;54193;53.746;10.058;2023-04-01T16:29:46;4.30;89.97
67279;DHT22;54193;53.746;10.058;2023-04-01T16:35:17;4.24;89.50
67279;DHT22;54193;53.746;10.058;2023-04-01T16:38:16;4.25;89.79
67279;DHT22;54193;53.746;10.058;2023-04-01T16:41:19;4.25;89.82
67279;DHT22;54193;53.746;10.058;2023-04-01T16:44:17;4.24;89.55
67279;DHT22;54193;53.746;10.058;2023-04-01T16:47:12;4.21;89.30
67279;DHT22;54193;53.746;10.058;2023-04-01T16:50:18;4.31;88.87
67279;DHT22;54193;53.746;10.058;2023-04-01T16:53:19;4.30;88.42
67279;DHT22;54193;53.746;10.058;2023-04-01T16:56:24;4.31;88.93
67279;DHT22;54193;53.746;10.058;2023-04-01T16:59:19;4.24;88.90
67279;DHT22;54193;53.746;10.058;2023-04-01T17:02:10;4.21;89.38
67279;DHT22;54193;53.746;10.058;2023-04-01T17:05:08;4.15;88.67
67279;DHT22;54193;53.746;10.058;2023-04-01T17:08:35;4.11;88.86
67279;DHT22;54193;53.746;10.058;2023-04-01T17:14:28;4.10;88.25
67279;DHT22;54193;53.746;10.058;2023-04-01T17:20:40;4.00;88.60
67279;DHT22;54193;53.746;10.058;2023-04-01T17:23:39;3.98;87.93
67279;DHT22;54193;53.746;10.058;2023-04-01T17:36:08;3.86;87.65
67279;DHT22;54193;53.746;10.058;2023-04-01T17:44:48;3.80;87.26
67279;DHT22;54193;53.746;10.058;2023-04-01T17:53:56;3.69;86.77
67279;DHT22;54193;53.746;10.058;2023-04-01T18:00:25;3.62;86.74
67279;DHT22;54193;53.746;10.058;2023-04-01T18:03:37;3.60;86.23
67279;DHT22;54193;53.746;10.058;2023-04-01T18:06:36;3.59;86.51
67279;DHT22;54193;53.746;10.058;2023-04-01T18:10:01;3.62;86.95
67279;DHT22;54193;53.746;10.058;2023-04-01T18:13:12;3.62;86.60
67279;DHT22;54193;53.746;10.058;2023-04-01T18:22:29;3.58;86.66
67279;DHT22;54193;53.746;10.058;2023-04-01T18:25:24;3.59;86.25
67279;DHT22;54193;53.746;10.058;2023-04-01T18:28:20;3.54;85.50
67279;DHT22;54193;53.746;10.058;2023-04-01T18:31:32;3.52;85.56
67279;DHT22;54193;53.746;10.058;2023-04-01T18:34:57;3.46;85.12
67279;DHT22;54193;53.746;10.058;2023-04-01T18:37:57;3.51;85.38
67279;DHT22;54193;53.746;10.058;2023-04-01T18:44:22;3.49;84.87
67279;DHT22;54193;53.746;10.058;2023-04-01T18:47:21;3.45;85.09
67279;DHT22;54193;53.746;10.058;2023-04-01T18:50:27;3.48;84.67
67279;DHT22;54193;53.746;10.058;2023-04-01T18:53:22;3.46;84.64
67279;DHT22;54193;53.746;10.058;2023-04-01T18:56:13;3.46;85.00
67279;DHT22;54193;53.746;10.058;2023-04-01T18:59:20;3.46;85.09
67279;DHT22;54193;53.746;10.058;2023-04-01T19:02:19;3.43;84.49
67279;DHT22;54193;53.746;10.058;2023-04-01T19:05:17;3.41;84.26
67279;DHT22;54193;53.746;10.058;2023-04-01T19:12:21;3.41;84.43
67279;DHT22;54193;53.746;10.058;2023-04-01T19:17:37;3.34;83.93
67279;DHT22;54193;53.746;10.058;2023-04-01T19:27:03;3.35;83.28
67279;DHT22;54193;53.746;10.058;2023-04-01T19:33:18;3.28;83.99
67279;DHT22;54193;53.746;10.058;2023-04-01T19:39:31;3.21;82.83
67279;DHT22;54193;53.746;10.058;2023-04-01T19:42:49;3.13;82.38
67279;DHT22;54193;53.746;10.058;2023-04-01T19:48:37;2.82;82.48
67279;DHT22;54193;53.746;10.058;2023-04-01T19:51:38;2.65;83.57
67279;DHT22;54193;53.746;10.058;2023-04-01T19:54:40;2.55;83.32
67279;DHT22;54193;53.746;10.058;2023-04-01T19:57:36;2.44;83.45
67279;DHT22;54193;53.746;10.058;2023-04-01T20:00:47;2.34;83.76
67279;DHT22;54193;53.746;10.058;2023-04-01T20:03:50;2.22;84.18
67279;DHT22;54193;53.746;10.058;2023-04-01T20:13:02;2.14;84.26
67279;DHT22;54193;53.746;10.058;2023-04-01T20:16:06;2.15;84.11
67279;DHT22;54193;53.746;10.058;2023-04-01T20:18:55;2.14;83.92
67279;DHT22;54193;53.746;10.058;2023-04-01T20:21:46;2.13;83.79
67279;DHT22;54193;53.746;10.058;2023-04-01T20:24:41;2.10;84.00
67279;DHT22;54193;53.746;10.058;2023-04-01T20:27:34;2.07;83.96
67279;DHT22;54193;53.746;10.058;2023-04-01T20:33:34;2.10;83.82
67279;DHT22;54193;53.746;10.058;2023-04-01T20:36:46;2.04;83.89
67279;DHT22;54193;53.746;10.058;2023-04-01T20:39:47;1.91;84.85
67279;DHT22;54193;53.746;10.058;2023-04-01T20:43:07;1.89;84.73
67279;DHT22;54193;53.746;10.058;2023-04-01T20:46:11;1.83;85.05
67279;DHT22;54193;53.746;10.058;2023-04-01T20:49:18;1.72;85.26
67279;DHT22;54193;53.746;10.058;2023-04-01T20:55:21;1.86;84.64
67279;DHT22;54193;53.746;10.058;2023-04-01T20:58:26;1.90;84.21
67279;DHT22;54193;53.746;10.058;2023-04-01T21:07:44;1.62;85.57
67279;DHT22;54193;53.746;10.058;2023-04-01T21:23:21;1.63;84.62
67279;DHT22;54193;53.746;10.058;2023-04-01T21:26:28;1.56;85.39
67279;DHT22;54193;53.746;10.058;2023-04-01T21:29:50;1.51;85.33
67279;DHT22;54193;53.746;10.058;2023-04-01T21:36:03;1.55;85.27
67279;DHT22;54193;53.746;10.058;2023-04-01T21:39:05;1.36;85.83
67279;DHT22;54193;53.746;10.058;2023-04-01T21:42:03;1.43;85.47
67279;DHT22;54193;53.746;10.058;2023-04-01T21:47:53;1.51;84.93
67279;DHT22;54193;53.746;10.058;2023-04-01T21:50:53;1.42;84.77
67279;DHT22;54193;53.746;10.058;2023-04-01T21:54:03;1.38;85.22
67279;DHT22;54193;53.746;10.058;2023-04-01T22:06:44;1.21;86.20
67279;DHT22;54193;53.746;10.058;2023-04-01T22:09:39;1.08;86.72
67279;DHT22;54193;53.746;10.058;2023-04-01T22:13:17;1.01;86.86
67279;DHT22;54193;53.746;10.058;2023-04-01T22:22:08;1.20;85.84
67279;DHT22;54193;53.746;10.058;2023-04-01T22:30:34;1.14;86.13
67279;DHT22;54193;53.746;10.058;2023-04-01T22:33:25;1.08;86.04
67279;DHT22;54193;53.746;10.058;2023-04-01T22:36:31;1.14;85.81
67279;DHT22;54193;53.746;10.058;2023-04-01T22:42:44;1.04;86.01
67279;DHT22;54193;53.746;10.058;2023-04-01T22:46:05;1.11;85.43
67279;DHT22;54193;53.746;10.058;2023-04-01T22:48:59;1.05;85.72
67279;DHT22;54193;53.746;10.058;2023-04-01T22:51:56;1.08;85.08
67279;DHT22;54193;53.746;10.058;2023-04-01T22:54:49;1.21;83.77
67279;DHT22;54193;53.746;10.058;2023-04-01T22:57:53;1.24;83.70
67279;DHT22;54193;53.746;10.058;2023-04-01T23:00:52;1.28;83.12
67279;DHT22;54193;53.746;10.058;2023-04-01T23:03:41;1.34;82.00
67279;DHT22;54193;53.746;10.058;2023-04-01T23:06:39;1.35;82.06
67279;DHT22;54193;53.746;10.058;2023-04-01T23:09:29;1.28;82.10
67279;DHT22;54193;53.746;10.058;2023-04-01T23:12:19;1.13;82.92
67279;DHT22;54193;53.746;10.058;2023-04-01T23:15:12;1.09;83.01
67279;DHT22;54193;53.746;10.058;2023-04-01T23:24:19;0.93;83.76
67279;DHT22;54193;53.746;10.058;2023-04-01T23:27:12;1.01;83.63
67279;DHT22;54193;53.746;10.058;2023-04-01T23:30:01;0.94;83.77
67279;DHT22;54193;53.746;10.058;2023-04-01T23:32:48;1.05;83.41
67279;DHT22;54193;53.746;10.058;2023-04-01T23:35:46;0.94;84.00
67279;DHT22;54193;53.746;10.058;2023-04-01T23:38:35;0.90;84.51
67279;DHT22;54193;53.746;10.058;2023-04-01T23:41:28;0.91;84.04
67279;DHT22;54193;53.746;10.058;2023-04-01T23:44:15;0.88;84.53
67279;DHT22;54193;53.746;10.058;2023-04-01T23:47:03;0.87;84.54
67279;DHT22;54193;53.746;10.058;2023-04-01T23:49:55;0.86;84.74
67279;DHT22;54193;53.746;10.058;2023-04-01T23:52:46;0.86;84.89
67279;DHT22;54193;53.746;10.058;2023-04-01T23:55:33;0.79;85.33
67279;DHT22;54193;53.746;10.058;2023-04-01T23:58:38;0.79;85.16
